createdAt,value
2022-12-09T00:00:22.595Z,18.08
2022-12-09T00:02:57.019Z,18.50
2022-12-09T00:05:24.592Z,18.25
2022-12-09T00:07:59.271Z,18.70
2022-12-09T00:10:26.778Z,17.25
2022-12-09T00:13:02.886Z,16.00
2022-12-09T00:15:29.925Z,15.50
2022-12-09T00:18:16.928Z,15.50
2022-12-09T00:20:46.451Z,15.63
2022-12-09T00:23:26.868Z,17.63
2022-12-09T00:25:57.419Z,15.63
2022-12-09T00:28:31.140Z,18.48
2022-12-09T00:31:02.562Z,16.38
2022-12-09T00:33:40.871Z,15.60
2022-12-09T00:36:28.130Z,16.95
2022-12-09T00:38:56.758Z,18.27
2022-12-09T00:41:24.526Z,18.85
2022-12-09T00:43:58.891Z,16.92
2022-12-09T00:46:36.045Z,18.25
2022-12-09T00:49:04.150Z,16.75
2022-12-09T00:51:31.226Z,16.35
2022-12-09T00:54:04.927Z,15.65
2022-12-09T00:56:32.768Z,16.15
2022-12-09T00:59:09.984Z,14.02
2022-12-09T01:01:37.377Z,13.23
2022-12-09T01:04:15.062Z,14.50
2022-12-09T01:06:42.268Z,13.23
2022-12-09T01:09:16.169Z,12.35
2022-12-09T01:11:46.554Z,12.38
2022-12-09T01:14:20.960Z,13.25
2022-12-09T01:16:48.212Z,13.98
2022-12-09T01:19:24.926Z,12.93
2022-12-09T01:21:55.718Z,14.77
2022-12-09T01:24:33.020Z,13.35
2022-12-09T01:27:00.292Z,14.40
2022-12-09T01:29:27.628Z,14.82
2022-12-09T01:32:02.025Z,13.85
2022-12-09T01:34:36.372Z,14.50
2022-12-09T01:37:03.738Z,13.77
2022-12-09T01:39:32.292Z,12.77
2022-12-09T01:42:09.251Z,11.15
2022-12-09T01:44:43.020Z,12.82
2022-12-09T01:47:22.869Z,11.20
2022-12-09T01:49:57.187Z,10.10
2022-12-09T01:52:25.050Z,9.65
2022-12-09T01:54:53.491Z,12.18
2022-12-09T01:57:27.037Z,11.50
2022-12-09T01:59:54.444Z,12.38
2022-12-09T02:02:22.920Z,12.82
2022-12-09T02:04:57.241Z,14.60
2022-12-09T02:07:30.984Z,13.18
2022-12-09T02:09:58.657Z,14.57
2022-12-09T02:12:37.020Z,14.63
2022-12-09T02:15:27.253Z,13.70
2022-12-09T02:18:09.286Z,14.05
2022-12-09T02:20:43.054Z,14.65
2022-12-09T02:23:32.407Z,14.50
2022-12-09T02:26:27.652Z,15.05
2022-12-09T02:29:14.296Z,13.63
2022-12-09T02:32:02.948Z,15.15
2022-12-09T02:34:51.086Z,14.68
2022-12-09T02:37:26.278Z,13.45
2022-12-09T02:40:04.352Z,13.82
2022-12-09T02:42:35.879Z,12.20
2022-12-09T02:45:17.562Z,13.98
2022-12-09T02:47:49.672Z,11.98
2022-12-09T02:50:44.022Z,12.00
2022-12-09T02:53:27.179Z,10.30
2022-12-09T02:56:05.163Z,10.15
2022-12-09T02:58:32.539Z,10.60
2022-12-09T03:01:09.523Z,9.93
2022-12-09T03:03:37.116Z,10.02
2022-12-09T03:06:15.052Z,8.32
2022-12-09T03:09:08.906Z,9.82
2022-12-09T03:11:46.201Z,10.20
2022-12-09T03:14:45.373Z,8.10
2022-12-09T03:17:28.819Z,8.07
2022-12-09T03:20:11.664Z,8.68
2022-12-09T03:22:43.314Z,9.93
2022-12-09T03:25:31.467Z,8.32
2022-12-09T03:28:09.275Z,9.05
2022-12-09T03:30:47.121Z,13.35
2022-12-09T03:33:18.877Z,10.45
2022-12-09T03:36:04.220Z,10.07
2022-12-09T03:38:38.527Z,9.93
2022-12-09T03:41:39.258Z,10.32
2022-12-09T03:44:24.470Z,9.48
2022-12-09T03:46:58.633Z,8.90
2022-12-09T03:49:32.564Z,8.23
2022-12-09T03:52:12.204Z,8.23
2022-12-09T03:54:53.491Z,10.35
2022-12-09T03:57:32.444Z,10.20
2022-12-09T04:00:08.434Z,9.88
2022-12-09T04:02:43.634Z,9.10
2022-12-09T04:05:16.147Z,9.35
2022-12-09T04:07:50.329Z,8.77
2022-12-09T04:10:18.044Z,8.00
2022-12-09T04:12:51.369Z,8.07
2022-12-09T04:15:26.904Z,8.52
2022-12-09T04:17:59.799Z,7.93
2022-12-09T04:20:33.344Z,8.43
2022-12-09T04:23:07.251Z,8.70
2022-12-09T04:25:38.699Z,8.70
2022-12-09T04:28:13.277Z,9.57
2022-12-09T04:30:52.358Z,8.80
2022-12-09T04:33:19.710Z,8.88
2022-12-09T04:35:46.895Z,9.07
2022-12-09T04:38:20.325Z,9.13
2022-12-09T04:40:47.521Z,9.88
2022-12-09T04:43:18.222Z,9.55
2022-12-09T04:45:57.967Z,10.30
2022-12-09T04:48:35.045Z,9.40
2022-12-09T04:51:08.374Z,8.18
2022-12-09T04:53:36.334Z,10.55
2022-12-09T04:56:17.149Z,9.95
2022-12-09T04:58:52.638Z,9.45
2022-12-09T05:01:33.389Z,9.93
2022-12-09T05:04:08.271Z,11.80
2022-12-09T05:06:42.518Z,10.85
2022-12-09T05:09:13.829Z,12.65
2022-12-09T05:14:18.618Z,10.10
2022-12-09T05:16:46.185Z,12.40
2022-12-09T05:19:20.548Z,12.68
2022-12-09T05:21:50.838Z,10.93
2022-12-09T05:24:24.383Z,12.43
2022-12-09T05:27:07.570Z,11.93
2022-12-09T05:29:41.313Z,12.52
2022-12-09T05:32:09.112Z,10.55
2022-12-09T05:34:47.542Z,12.27
2022-12-09T05:37:25.702Z,11.73
2022-12-09T05:39:59.377Z,12.57
2022-12-09T05:42:41.088Z,11.95
2022-12-09T05:45:19.659Z,11.77
2022-12-09T05:48:03.801Z,11.48
2022-12-09T05:50:48.553Z,13.18
2022-12-09T05:53:28.486Z,11.82
2022-12-09T05:56:08.384Z,11.73
2022-12-09T05:58:42.659Z,12.45
2022-12-09T06:01:26.541Z,12.75
2022-12-09T06:04:05.799Z,13.20
2022-12-09T06:06:43.121Z,13.77
2022-12-09T06:09:22.694Z,12.35
2022-12-09T06:11:50.305Z,11.52
2022-12-09T06:14:24.719Z,13.70
2022-12-09T06:16:52.529Z,12.73
2022-12-09T06:19:31.828Z,12.90
2022-12-09T06:22:08.489Z,12.77
2022-12-09T06:24:42.739Z,11.90
2022-12-09T06:27:22.857Z,12.23
2022-12-09T06:30:08.926Z,11.10
2022-12-09T06:32:43.772Z,12.10
2022-12-09T06:35:11.226Z,13.68
2022-12-09T06:37:38.579Z,12.68
2022-12-09T06:40:13.865Z,12.75
2022-12-09T06:42:43.910Z,13.60
2022-12-09T06:45:22.418Z,14.85
2022-12-09T06:47:56.576Z,13.63
2022-12-09T06:50:27.237Z,13.95
2022-12-09T06:53:00.850Z,15.00
2022-12-09T06:55:28.101Z,12.93
2022-12-09T06:58:07.702Z,13.60
2022-12-09T07:00:35.455Z,13.10
2022-12-09T07:03:14.539Z,13.80
2022-12-09T07:05:41.878Z,12.35
2022-12-09T07:08:24.267Z,11.43
2022-12-09T07:10:56.189Z,12.65
2022-12-09T07:15:57.746Z,13.32
2022-12-09T07:18:31.547Z,16.23
2022-12-09T07:21:06.837Z,16.02
2022-12-09T07:23:34.158Z,13.98
2022-12-09T07:26:08.790Z,14.65
2022-12-09T07:28:37.631Z,15.35
2022-12-09T07:31:11.711Z,18.95
2022-12-09T07:33:38.902Z,18.25
2022-12-09T07:36:16.175Z,16.33
2022-12-09T07:38:47.716Z,21.23
2022-12-09T07:41:27.574Z,20.33
2022-12-09T07:43:55.077Z,20.27
2022-12-09T07:46:30.778Z,21.52
2022-12-09T07:49:04.645Z,21.30
2022-12-09T07:51:33.579Z,24.10
2022-12-09T07:54:07.492Z,21.38
2022-12-09T07:56:34.544Z,18.80
2022-12-09T07:59:08.473Z,19.08
2022-12-09T08:01:36.456Z,20.35
2022-12-09T08:04:07.216Z,19.40
2022-12-09T08:06:42.802Z,19.50
2022-12-09T08:09:13.598Z,19.90
2022-12-09T08:11:48.821Z,20.42
2022-12-09T08:14:16.407Z,18.75
2022-12-09T08:16:50.856Z,17.85
2022-12-09T08:19:18.131Z,19.35
2022-12-09T08:21:54.700Z,17.38
2022-12-09T08:24:22.160Z,16.20
2022-12-09T08:26:57.890Z,19.83
2022-12-09T08:29:33.091Z,18.70
2022-12-09T08:32:07.628Z,18.33
2022-12-09T08:34:48.989Z,21.30
2022-12-09T08:37:22.912Z,20.70
2022-12-09T08:42:44.576Z,17.52
2022-12-09T08:45:18.759Z,16.98
2022-12-09T08:47:52.635Z,21.45
2022-12-09T08:50:27.275Z,19.23
2022-12-09T08:52:54.745Z,21.40
2022-12-09T08:55:28.616Z,22.20
2022-12-09T08:57:57.153Z,20.83
2022-12-09T09:00:30.517Z,20.98
2022-12-09T09:03:03.194Z,19.25
2022-12-09T09:05:38.183Z,20.38
2022-12-09T09:08:05.660Z,18.92
2022-12-09T09:10:39.910Z,18.27
2022-12-09T09:13:07.603Z,18.73
2022-12-09T09:15:42.168Z,18.17
2022-12-09T09:18:09.323Z,19.98
2022-12-09T09:20:42.911Z,15.63
2022-12-09T09:23:10.176Z,15.43
2022-12-09T09:25:42.189Z,14.80
2022-12-09T09:28:16.876Z,14.65
2022-12-09T09:30:43.952Z,14.25
2022-12-09T09:33:17.760Z,18.35
2022-12-09T09:35:44.946Z,16.15
2022-12-09T09:38:18.829Z,15.65
2022-12-09T09:40:45.886Z,17.27
2022-12-09T09:43:25.142Z,16.00
2022-12-09T09:46:02.023Z,13.02
2022-12-09T09:48:40.834Z,16.58
2022-12-09T09:51:19.192Z,19.23
2022-12-09T09:54:05.081Z,17.35
2022-12-09T09:56:49.832Z,19.20
2022-12-09T09:59:31.060Z,15.75
2022-12-09T10:02:18.336Z,16.33
2022-12-09T10:05:08.062Z,16.55
2022-12-09T10:07:46.045Z,15.40
2022-12-09T10:10:43.276Z,18.33
2022-12-09T10:13:24.160Z,23.83
2022-12-09T10:16:19.470Z,23.00
2022-12-09T10:19:25.168Z,23.30
2022-12-09T10:21:54.816Z,19.08
2022-12-09T10:24:40.965Z,18.15
2022-12-09T10:27:27.179Z,18.98
2022-12-09T10:30:21.010Z,18.42
2022-12-09T10:32:49.295Z,18.75
2022-12-09T10:35:35.540Z,22.52
2022-12-09T10:38:22.304Z,18.48
2022-12-09T10:41:44.182Z,18.00
2022-12-09T10:44:40.434Z,17.60
2022-12-09T10:47:32.441Z,19.27
2022-12-09T10:50:02.148Z,16.48
2022-12-09T10:52:52.071Z,15.77
2022-12-09T10:55:32.251Z,15.65
2022-12-09T10:58:26.847Z,21.25
2022-12-09T11:01:08.863Z,23.48
2022-12-09T11:03:47.372Z,27.15
2022-12-09T11:06:23.704Z,26.23
2022-12-09T11:09:03.266Z,25.60
2022-12-09T11:17:39.915Z,25.65
2022-12-09T11:20:23.341Z,25.80
2022-12-09T11:23:14.339Z,22.75
2022-12-09T11:26:06.176Z,21.58
2022-12-09T11:28:47.939Z,15.63
2022-12-09T11:31:35.419Z,19.80
2022-12-09T11:34:23.069Z,17.52
2022-12-09T11:36:56.932Z,15.48
2022-12-09T11:39:33.846Z,17.45
2022-12-09T11:42:18.650Z,17.60
2022-12-09T11:45:11.909Z,17.92
2022-12-09T11:50:38.897Z,18.58
2022-12-09T11:53:18.859Z,16.90
2022-12-09T11:55:59.207Z,15.40
2022-12-09T11:58:56.883Z,14.15
2022-12-09T12:01:42.526Z,13.80
2022-12-09T12:04:18.820Z,13.90
2022-12-09T12:06:58.115Z,16.88
2022-12-09T12:09:43.837Z,17.33
2022-12-09T12:12:30.937Z,25.35
2022-12-09T12:15:16.949Z,23.65
2022-12-09T12:18:06.938Z,21.75
2022-12-09T12:21:08.309Z,21.52
2022-12-09T12:24:00.903Z,18.75
2022-12-09T12:26:50.278Z,20.00
2022-12-09T12:29:27.977Z,21.80
2022-12-09T12:32:27.884Z,19.38
2022-12-09T12:38:00.915Z,18.27
2022-12-09T12:40:59.966Z,18.03
2022-12-09T12:43:57.909Z,17.45
2022-12-09T12:46:30.951Z,14.60
2022-12-09T12:49:35.962Z,14.52
2022-12-09T12:55:54.178Z,21.50
2022-12-09T12:58:24.156Z,22.08
2022-12-09T13:01:09.982Z,21.90
2022-12-09T13:04:00.496Z,21.90
2022-12-09T13:06:52.922Z,19.88
2022-12-09T13:09:48.675Z,19.27
2022-12-09T13:12:51.011Z,18.75
2022-12-09T13:15:28.980Z,19.98
2022-12-09T13:17:56.388Z,17.48
2022-12-09T13:20:48.973Z,19.27
2022-12-09T13:23:32.987Z,19.27
2022-12-09T13:26:34.013Z,17.52
2022-12-09T13:29:18.941Z,23.48
2022-12-09T13:32:30.033Z,25.75
2022-12-09T13:35:29.983Z,24.77
2022-12-09T13:37:59.993Z,22.20
2022-12-09T13:40:39.059Z,23.10
2022-12-09T13:43:29.005Z,20.63
2022-12-09T13:46:06.103Z,19.80
2022-12-09T13:49:02.009Z,18.42
2022-12-09T13:51:52.072Z,17.60
2022-12-09T13:54:22.965Z,17.20
2022-12-09T13:57:14.996Z,16.67
2022-12-09T13:59:50.714Z,14.43
2022-12-09T14:02:52.108Z,14.20
2022-12-09T14:05:33.990Z,15.43
2022-12-09T14:08:14.171Z,15.32
2022-12-09T14:10:55.013Z,12.57
2022-12-09T14:13:35.654Z,15.52
2022-12-09T14:16:35.106Z,15.50
2022-12-09T14:19:23.959Z,16.60
2022-12-09T14:22:29.092Z,16.08
2022-12-09T14:25:19.832Z,16.67
2022-12-09T14:28:19.120Z,16.63
2022-12-09T14:30:51.072Z,14.80
2022-12-09T14:33:49.118Z,14.55
2022-12-09T14:36:29.705Z,19.77
2022-12-09T14:39:25.545Z,18.70
2022-12-09T14:42:11.607Z,16.42
2022-12-09T14:45:08.055Z,15.68
2022-12-09T14:47:50.132Z,16.05
2022-12-09T14:50:29.747Z,20.52
2022-12-09T14:53:12.124Z,18.75
2022-12-09T14:55:41.486Z,16.77
2022-12-09T14:58:25.110Z,16.63
2022-12-09T15:01:11.107Z,19.40
2022-12-09T15:03:45.440Z,18.15
2022-12-09T15:06:24.297Z,17.25
2022-12-09T15:08:56.213Z,15.98
2022-12-09T15:11:38.181Z,15.63
2022-12-09T15:14:34.234Z,17.48
2022-12-09T15:17:02.720Z,15.45
2022-12-09T15:22:37.424Z,15.43
2022-12-09T15:25:08.447Z,16.42
2022-12-09T15:27:42.265Z,16.00
2022-12-09T15:30:30.186Z,18.08
2022-12-09T15:32:57.616Z,19.58
2022-12-09T15:35:35.168Z,18.73
2022-12-09T15:38:07.000Z,20.58
2022-12-09T15:40:45.207Z,20.13
2022-12-09T15:43:14.638Z,21.05
2022-12-09T15:45:51.366Z,21.50
2022-12-09T15:48:23.864Z,19.77
2022-12-09T15:51:11.248Z,18.55
2022-12-09T15:53:44.445Z,17.23
2022-12-09T15:56:42.410Z,18.33
2022-12-09T15:59:24.352Z,18.60
2022-12-09T16:02:04.416Z,21.02
2022-12-09T16:04:51.384Z,21.50
2022-12-09T16:07:32.259Z,20.90
2022-12-09T16:10:22.269Z,25.15
2022-12-09T16:13:12.258Z,28.15
2022-12-09T16:16:06.370Z,27.52
2022-12-09T16:18:56.392Z,26.27
2022-12-09T16:21:36.373Z,29.13
2022-12-09T16:24:12.598Z,27.42
2022-12-09T16:26:54.357Z,26.77
2022-12-09T16:29:36.413Z,25.02
2022-12-09T16:32:28.503Z,26.90
2022-12-09T16:35:11.767Z,25.35
2022-12-09T16:38:10.362Z,25.15
2022-12-09T16:40:46.506Z,21.40
2022-12-09T16:43:23.322Z,22.70
2022-12-09T16:45:59.266Z,21.88
2022-12-09T16:48:35.622Z,21.38
2022-12-09T16:51:14.576Z,25.75
2022-12-09T16:53:51.584Z,25.13
2022-12-09T16:56:26.844Z,23.30
2022-12-09T16:59:01.323Z,23.45
2022-12-09T17:01:41.309Z,22.90
2022-12-09T17:04:28.701Z,25.65
2022-12-09T17:07:04.514Z,23.00
2022-12-09T17:09:36.426Z,26.95
2022-12-09T17:12:13.396Z,26.90
2022-12-09T17:14:40.584Z,27.25
2022-12-09T17:17:07.750Z,24.58
2022-12-09T17:19:41.408Z,24.20
2022-12-09T17:22:15.367Z,24.05
2022-12-09T17:24:49.383Z,26.50
2022-12-09T17:27:17.962Z,25.30
2022-12-09T17:29:48.254Z,18.08
2022-12-09T17:32:22.350Z,22.08
2022-12-09T17:34:49.300Z,21.35
2022-12-09T17:37:17.132Z,21.52
2022-12-09T17:39:55.617Z,19.30
2022-12-09T17:42:39.525Z,18.65
2022-12-09T17:45:07.499Z,19.90
2022-12-09T17:47:34.848Z,23.73
2022-12-09T17:50:09.950Z,26.50
2022-12-09T17:52:37.263Z,23.52
2022-12-09T17:55:06.580Z,21.50
2022-12-09T17:57:40.500Z,20.85
2022-12-09T18:00:08.430Z,19.77
2022-12-09T18:02:45.863Z,21.92
2022-12-09T18:05:12.928Z,22.35
2022-12-09T18:07:49.512Z,21.15
2022-12-09T18:10:16.709Z,21.02
2022-12-09T18:12:50.680Z,20.60
2022-12-09T18:15:17.838Z,23.02
2022-12-09T18:17:46.360Z,19.95
2022-12-09T18:20:23.057Z,19.73
2022-12-09T18:22:51.189Z,21.13
2022-12-09T18:25:18.311Z,19.65
2022-12-09T18:27:53.547Z,19.30
2022-12-09T18:30:20.711Z,23.45
2022-12-09T18:32:54.577Z,20.55
2022-12-09T18:35:21.716Z,24.00
2022-12-09T18:37:59.921Z,25.10
2022-12-09T18:40:58.522Z,22.30
2022-12-09T18:46:12.591Z,21.13
2022-12-09T18:48:47.596Z,22.55
2022-12-09T18:51:19.527Z,21.23
2022-12-09T18:54:04.629Z,22.42
2022-12-09T18:56:33.205Z,24.42
2022-12-09T18:59:08.961Z,22.30
2022-12-09T19:01:46.962Z,21.05
2022-12-09T19:04:19.630Z,22.00
2022-12-09T19:06:55.581Z,22.50
2022-12-09T19:09:32.590Z,24.30
2022-12-09T19:12:45.297Z,22.20
2022-12-09T19:15:05.670Z,21.73
2022-12-09T19:17:32.726Z,23.40
2022-12-09T19:20:06.873Z,25.30
2022-12-09T19:22:40.671Z,22.75
2022-12-09T19:25:14.638Z,24.02
2022-12-09T19:27:42.103Z,24.42
2022-12-09T19:30:15.576Z,24.00
2022-12-09T19:32:56.436Z,22.23
2022-12-09T19:35:30.725Z,25.27
2022-12-09T19:38:01.203Z,23.90
2022-12-09T19:40:35.651Z,23.55
2022-12-09T19:43:07.580Z,22.42
2022-12-09T19:45:41.601Z,28.50
2022-12-09T19:48:11.259Z,26.55
2022-12-09T19:50:44.870Z,24.40
2022-12-09T19:53:13.992Z,27.17
2022-12-09T19:55:41.230Z,26.05
2022-12-09T19:58:19.615Z,24.27
2022-12-09T20:00:46.795Z,24.23
2022-12-09T20:03:20.723Z,24.73
2022-12-09T20:05:54.936Z,25.45
2022-12-09T20:08:29.709Z,27.63
2022-12-09T20:11:03.693Z,22.35
2022-12-09T20:13:36.975Z,24.92
2022-12-09T20:16:14.838Z,23.10
2022-12-09T20:18:53.810Z,24.35
2022-12-09T20:21:30.603Z,23.10
2022-12-09T20:23:59.463Z,23.15
2022-12-09T20:26:44.835Z,25.98
2022-12-09T20:29:12.661Z,24.05
2022-12-09T20:31:47.816Z,22.17
2022-12-09T20:34:16.479Z,24.13
2022-12-09T20:36:51.767Z,23.50
2022-12-09T20:39:20.927Z,26.92
2022-12-09T20:41:58.788Z,24.25
2022-12-09T20:44:32.771Z,25.38
2022-12-09T20:47:01.299Z,26.92
2022-12-09T20:49:36.777Z,22.88
2022-12-09T20:52:10.832Z,26.20
2022-12-09T20:54:37.933Z,24.80
2022-12-09T20:57:13.606Z,27.20
2022-12-09T20:59:43.807Z,25.50
2022-12-09T21:02:22.795Z,26.73
2022-12-09T21:04:51.247Z,27.08
2022-12-09T21:07:18.513Z,28.58
2022-12-09T21:09:53.760Z,29.20
2022-12-09T21:12:23.200Z,26.55
2022-12-09T21:14:56.878Z,27.05
2022-12-09T21:17:30.948Z,23.63
2022-12-09T21:19:58.157Z,24.35
2022-12-09T21:22:31.762Z,23.42
2022-12-09T21:24:58.901Z,24.00
2022-12-09T21:27:25.954Z,24.60
2022-12-09T21:29:59.706Z,22.65
2022-12-09T21:32:33.776Z,22.40
2022-12-09T21:35:02.313Z,23.05
2022-12-09T21:37:36.839Z,22.38
2022-12-09T21:40:05.171Z,23.85
2022-12-09T21:42:34.498Z,20.05
2022-12-09T21:45:09.567Z,22.40
2022-12-09T21:47:45.853Z,23.20
2022-12-09T21:50:18.622Z,22.33
2022-12-09T21:52:54.789Z,21.75
2022-12-09T21:55:28.755Z,19.58
2022-12-09T21:57:57.454Z,19.27
2022-12-09T22:00:30.936Z,19.33
2022-12-09T22:02:57.986Z,19.77
2022-12-09T22:05:34.312Z,17.80
2022-12-09T22:08:14.921Z,18.55
2022-12-09T22:10:44.412Z,17.20
2022-12-09T22:13:22.960Z,17.63
2022-12-09T22:15:50.167Z,23.20
2022-12-09T22:18:17.965Z,17.95
2022-12-09T22:21:23.504Z,18.52
2022-12-09T22:23:45.975Z,19.45
2022-12-09T22:26:16.009Z,20.35
2022-12-09T22:28:49.873Z,17.67
2022-12-09T22:31:21.432Z,16.80
2022-12-09T22:33:56.861Z,11.57
2022-12-09T22:36:23.984Z,18.50
2022-12-09T22:38:58.874Z,19.20
2022-12-09T22:41:27.938Z,17.92
2022-12-09T22:44:02.897Z,20.35
2022-12-09T22:46:33.006Z,19.45
2022-12-09T22:49:08.999Z,19.70
2022-12-09T22:51:39.125Z,21.55
2022-12-09T22:54:17.987Z,24.25
2022-12-09T22:56:59.047Z,22.58
2022-12-09T22:59:26.318Z,25.45
2022-12-09T23:01:59.921Z,25.40
2022-12-09T23:04:33.910Z,31.92
2022-12-09T23:07:10.445Z,31.73
2022-12-09T23:09:43.974Z,34.35
2022-12-09T23:12:11.622Z,36.05
2022-12-09T23:14:45.980Z,35.10
2022-12-09T23:17:13.185Z,35.88
2022-12-09T23:19:40.310Z,34.08
2022-12-09T23:22:13.996Z,39.28
2022-12-09T23:24:47.908Z,35.13
2022-12-09T23:27:21.894Z,39.47
2022-12-09T23:29:48.869Z,38.50
2022-12-09T23:32:27.030Z,37.35
2022-12-09T23:35:05.847Z,37.28
2022-12-09T23:37:41.979Z,34.97
2022-12-09T23:40:15.918Z,33.47
2022-12-09T23:42:49.975Z,33.05
2022-12-09T23:45:17.290Z,35.20
2022-12-09T23:47:48.708Z,34.33
2022-12-09T23:50:22.032Z,36.20
2022-12-09T23:52:49.024Z,37.80
2022-12-09T23:55:22.989Z,33.33
2022-12-09T23:57:50.192Z,34.38
